sensor_id;sensor_type;location;lat;lon;timestamp;P1;durP1;ratioP1;P2;durP2;ratioP2
7931;SDS011;4011;49.424;10.894;2024-03-23T00:59:03;4.80;;;2.95;;
7931;SDS011;4011;49.424;10.894;2024-03-23T01:04:25;4.25;;;3.10;;
7931;SDS011;4011;49.424;10.894;2024-03-23T01:09:46;4.13;;;2.92;;
7931;SDS011;4011;49.424;10.894;2024-03-23T01:15:10;4.35;;;2.85;;
7931;SDS011;4011;49.424;10.894;2024-03-23T01:20:33;4.22;;;2.90;;
7931;SDS011;4011;49.424;10.894;2024-03-23T01:25:54;4.40;;;2.80;;
7931;SDS011;4011;49.424;10.894;2024-03-23T01:31:17;4.97;;;2.85;;
7931;SDS011;4011;49.424;10.894;2024-03-23T01:36:39;4.38;;;2.72;;
7931;SDS011;4011;49.424;10.894;2024-03-23T01:42:00;5.18;;;3.20;;
7931;SDS011;4011;49.424;10.894;2024-03-23T01:47:23;4.15;;;3.00;;
7931;SDS011;4011;49.424;10.894;2024-03-23T01:52:45;3.60;;;2.67;;
7931;SDS011;4011;49.424;10.894;2024-03-23T01:58:06;4.32;;;2.90;;
7931;SDS011;4011;49.424;10.894;2024-03-23T02:03:29;5.93;;;2.75;;
7931;SDS011;4011;49.424;10.894;2024-03-23T02:08:51;4.32;;;2.92;;
7931;SDS011;4011;49.424;10.894;2024-03-23T02:14:13;4.30;;;2.97;;
7931;SDS011;4011;49.424;10.894;2024-03-23T02:19:35;4.68;;;3.13;;
7931;SDS011;4011;49.424;10.894;2024-03-23T02:24:58;4.97;;;3.00;;
7931;SDS011;4011;49.424;10.894;2024-03-23T02:30:20;4.63;;;2.95;;
7931;SDS011;4011;49.424;10.894;2024-03-23T02:35:41;4.30;;;3.00;;
7931;SDS011;4011;49.424;10.894;2024-03-23T02:41:04;3.95;;;2.80;;
7931;SDS011;4011;49.424;10.894;2024-03-23T02:46:26;4.65;;;3.10;;
7931;SDS011;4011;49.424;10.894;2024-03-23T02:51:47;4.20;;;3.03;;
7931;SDS011;4011;49.424;10.894;2024-03-23T02:57:11;4.30;;;3.00;;
7931;SDS011;4011;49.424;10.894;2024-03-23T03:02:32;4.20;;;3.08;;
7931;SDS011;4011;49.424;10.894;2024-03-23T03:07:54;4.03;;;2.83;;
7931;SDS011;4011;49.424;10.894;2024-03-23T03:13:17;4.57;;;3.28;;
7931;SDS011;4011;49.424;10.894;2024-03-23T03:18:38;4.80;;;3.20;;
7931;SDS011;4011;49.424;10.894;2024-03-23T03:24:01;4.72;;;3.15;;
7931;SDS011;4011;49.424;10.894;2024-03-23T03:29:24;4.05;;;3.00;;
7931;SDS011;4011;49.424;10.894;2024-03-23T03:34:45;4.93;;;3.33;;
7931;SDS011;4011;49.424;10.894;2024-03-23T03:40:07;4.18;;;2.97;;
7931;SDS011;4011;49.424;10.894;2024-03-23T03:45:31;4.40;;;2.95;;
7931;SDS011;4011;49.424;10.894;2024-03-23T03:50:52;4.20;;;3.17;;
7931;SDS011;4011;49.424;10.894;2024-03-23T03:56:14;4.55;;;3.10;;
7931;SDS011;4011;49.424;10.894;2024-03-23T04:01:37;4.97;;;2.95;;
7931;SDS011;4011;49.424;10.894;2024-03-23T04:06:59;4.22;;;2.90;;
7931;SDS011;4011;49.424;10.894;2024-03-23T04:12:20;4.38;;;2.92;;
7931;SDS011;4011;49.424;10.894;2024-03-23T04:17:43;4.40;;;2.97;;
7931;SDS011;4011;49.424;10.894;2024-03-23T04:23:05;4.72;;;3.13;;
7931;SDS011;4011;49.424;10.894;2024-03-23T04:28:26;4.97;;;3.20;;
7931;SDS011;4011;49.424;10.894;2024-03-23T04:33:49;3.78;;;2.75;;
7931;SDS011;4011;49.424;10.894;2024-03-23T04:39:11;3.95;;;3.15;;
7931;SDS011;4011;49.424;10.894;2024-03-23T04:44:32;4.57;;;2.90;;
7931;SDS011;4011;49.424;10.894;2024-03-23T04:49:56;3.72;;;2.83;;
7931;SDS011;4011;49.424;10.894;2024-03-23T04:55:17;3.88;;;2.65;;
7931;SDS011;4011;49.424;10.894;2024-03-23T05:00:39;4.15;;;2.90;;
7931;SDS011;4011;49.424;10.894;2024-03-23T05:06:02;4.10;;;2.75;;
7931;SDS011;4011;49.424;10.894;2024-03-23T05:11:23;3.90;;;2.80;;
7931;SDS011;4011;49.424;10.894;2024-03-23T05:16:45;4.25;;;2.97;;
7931;SDS011;4011;49.424;10.894;2024-03-23T05:22:08;4.25;;;3.00;;
7931;SDS011;4011;49.424;10.894;2024-03-23T05:27:31;4.45;;;2.85;;
7931;SDS011;4011;49.424;10.894;2024-03-23T05:32:52;6.28;;;2.75;;
7931;SDS011;4011;49.424;10.894;2024-03-23T05:38:15;4.93;;;2.60;;
7931;SDS011;4011;49.424;10.894;2024-03-23T05:43:37;3.92;;;2.58;;
7931;SDS011;4011;49.424;10.894;2024-03-23T05:49:00;4.63;;;2.83;;
7931;SDS011;4011;49.424;10.894;2024-03-23T05:54:24;3.78;;;2.55;;
7931;SDS011;4011;49.424;10.894;2024-03-23T05:59:46;5.80;;;2.85;;
7931;SDS011;4011;49.424;10.894;2024-03-23T06:05:07;4.32;;;2.50;;
7931;SDS011;4011;49.424;10.894;2024-03-23T06:10:31;4.60;;;2.60;;
7931;SDS011;4011;49.424;10.894;2024-03-23T06:15:52;4.88;;;2.83;;
7931;SDS011;4011;49.424;10.894;2024-03-23T06:21:14;3.70;;;2.65;;
7931;SDS011;4011;49.424;10.894;2024-03-23T06:26:38;4.65;;;2.42;;
7931;SDS011;4011;49.424;10.894;2024-03-23T06:31:59;4.47;;;2.47;;
7931;SDS011;4011;49.424;10.894;2024-03-23T06:37:23;4.25;;;2.53;;
7931;SDS011;4011;49.424;10.894;2024-03-23T06:42:46;3.58;;;2.30;;
7931;SDS011;4011;49.424;10.894;2024-03-23T06:48:09;4.28;;;2.50;;
7931;SDS011;4011;49.424;10.894;2024-03-23T06:53:30;3.40;;;2.33;;
7931;SDS011;4011;49.424;10.894;2024-03-23T06:58:56;4.20;;;2.53;;
7931;SDS011;4011;49.424;10.894;2024-03-23T07:04:18;3.33;;;2.35;;
7931;SDS011;4011;49.424;10.894;2024-03-23T07:09:40;3.95;;;2.53;;
7931;SDS011;4011;49.424;10.894;2024-03-23T07:15:03;3.92;;;2.47;;
7931;SDS011;4011;49.424;10.894;2024-03-23T07:20:25;4.47;;;2.50;;
7931;SDS011;4011;49.424;10.894;2024-03-23T07:25:56;4.93;;;2.45;;
7931;SDS011;4011;49.424;10.894;2024-03-23T07:31:22;3.90;;;2.55;;
7931;SDS011;4011;49.424;10.894;2024-03-23T07:36:45;4.15;;;2.65;;
7931;SDS011;4011;49.424;10.894;2024-03-23T07:42:06;4.68;;;2.60;;
7931;SDS011;4011;49.424;10.894;2024-03-23T07:47:30;6.32;;;2.53;;
7931;SDS011;4011;49.424;10.894;2024-03-23T07:52:53;6.82;;;2.45;;
7931;SDS011;4011;49.424;10.894;2024-03-23T07:58:14;6.68;;;2.50;;
7931;SDS011;4011;49.424;10.894;2024-03-23T08:03:37;7.20;;;2.70;;
7931;SDS011;4011;49.424;10.894;2024-03-23T08:08:59;8.65;;;2.75;;
7931;SDS011;4011;49.424;10.894;2024-03-23T08:14:21;6.75;;;2.45;;
7931;SDS011;4011;49.424;10.894;2024-03-23T08:19:44;5.57;;;2.42;;
7931;SDS011;4011;49.424;10.894;2024-03-23T08:25:06;4.40;;;2.15;;
7931;SDS011;4011;49.424;10.894;2024-03-23T08:30:29;5.38;;;2.10;;
7931;SDS011;4011;49.424;10.894;2024-03-23T08:35:56;5.03;;;2.40;;
7931;SDS011;4011;49.424;10.894;2024-03-23T08:41:18;5.32;;;2.08;;
7931;SDS011;4011;49.424;10.894;2024-03-23T08:46:39;4.05;;;2.17;;
7931;SDS011;4011;49.424;10.894;2024-03-23T08:52:02;3.30;;;2.00;;
7931;SDS011;4011;49.424;10.894;2024-03-23T08:57:24;4.55;;;1.80;;
7931;SDS011;4011;49.424;10.894;2024-03-23T09:02:47;4.45;;;2.13;;
7931;SDS011;4011;49.424;10.894;2024-03-23T09:08:10;3.40;;;1.63;;
7931;SDS011;4011;49.424;10.894;2024-03-23T09:13:32;3.20;;;1.90;;
7931;SDS011;4011;49.424;10.894;2024-03-23T09:18:54;2.95;;;1.77;;
7931;SDS011;4011;49.424;10.894;2024-03-23T09:24:17;3.53;;;1.90;;
7931;SDS011;4011;49.424;10.894;2024-03-23T09:29:38;3.60;;;1.80;;
7931;SDS011;4011;49.424;10.894;2024-03-23T09:35:00;3.47;;;1.80;;
7931;SDS011;4011;49.424;10.894;2024-03-23T09:40:24;3.35;;;1.90;;
7931;SDS011;4011;49.424;10.894;2024-03-23T09:45:47;2.53;;;1.67;;
7931;SDS011;4011;49.424;10.894;2024-03-23T09:51:10;7.28;;;1.70;;
7931;SDS011;4011;49.424;10.894;2024-03-23T09:56:33;3.70;;;1.50;;
7931;SDS011;4011;49.424;10.894;2024-03-23T10:01:55;3.17;;;1.50;;
7931;SDS011;4011;49.424;10.894;2024-03-23T10:07:18;2.10;;;1.30;;
7931;SDS011;4011;49.424;10.894;2024-03-23T10:12:44;2.45;;;1.40;;
7931;SDS011;4011;49.424;10.894;2024-03-23T10:18:16;2.08;;;1.20;;
7931;SDS011;4011;49.424;10.894;2024-03-23T10:23:39;3.60;;;1.50;;
7931;SDS011;4011;49.424;10.894;2024-03-23T10:29:03;2.72;;;1.33;;
7931;SDS011;4011;49.424;10.894;2024-03-23T10:34:28;2.17;;;1.35;;
7931;SDS011;4011;49.424;10.894;2024-03-23T10:39:49;2.63;;;1.48;;
7931;SDS011;4011;49.424;10.894;2024-03-23T10:45:13;3.10;;;1.45;;
7931;SDS011;4011;49.424;10.894;2024-03-23T10:50:35;1.55;;;1.10;;
7931;SDS011;4011;49.424;10.894;2024-03-23T10:55:56;2.28;;;1.33;;
7931;SDS011;4011;49.424;10.894;2024-03-23T11:01:20;2.63;;;1.40;;
7931;SDS011;4011;49.424;10.894;2024-03-23T11:06:42;1.65;;;1.17;;
7931;SDS011;4011;49.424;10.894;2024-03-23T11:12:08;1.98;;;1.30;;
7931;SDS011;4011;49.424;10.894;2024-03-23T11:17:40;2.45;;;1.40;;
7931;SDS011;4011;49.424;10.894;2024-03-23T11:23:02;3.17;;;1.40;;
7931;SDS011;4011;49.424;10.894;2024-03-23T11:28:24;2.92;;;1.50;;
7931;SDS011;4011;49.424;10.894;2024-03-23T11:33:48;1.75;;;1.10;;
7931;SDS011;4011;49.424;10.894;2024-03-23T11:39:13;1.80;;;1.10;;
7931;SDS011;4011;49.424;10.894;2024-03-23T11:44:37;3.05;;;1.40;;
7931;SDS011;4011;49.424;10.894;2024-03-23T11:50:01;2.85;;;1.33;;
7931;SDS011;4011;49.424;10.894;2024-03-23T11:55:23;3.40;;;1.50;;
7931;SDS011;4011;49.424;10.894;2024-03-23T12:00:49;1.17;;;1.05;;
7931;SDS011;4011;49.424;10.894;2024-03-23T12:06:12;2.60;;;1.50;;
7931;SDS011;4011;49.424;10.894;2024-03-23T12:11:34;2.75;;;1.42;;
7931;SDS011;4011;49.424;10.894;2024-03-23T12:16:55;1.75;;;1.20;;
7931;SDS011;4011;49.424;10.894;2024-03-23T12:22:21;2.45;;;1.42;;
7931;SDS011;4011;49.424;10.894;2024-03-23T12:27:43;2.22;;;1.30;;
7931;SDS011;4011;49.424;10.894;2024-03-23T12:33:04;2.75;;;1.40;;
7931;SDS011;4011;49.424;10.894;2024-03-23T12:38:28;2.65;;;1.48;;
7931;SDS011;4011;49.424;10.894;2024-03-23T12:43:50;2.50;;;1.50;;
7931;SDS011;4011;49.424;10.894;2024-03-23T12:49:12;2.50;;;1.25;;
7931;SDS011;4011;49.424;10.894;2024-03-23T12:54:42;2.95;;;1.35;;
7931;SDS011;4011;49.424;10.894;2024-03-23T13:00:04;2.60;;;1.45;;
7931;SDS011;4011;49.424;10.894;2024-03-23T13:05:26;2.33;;;1.20;;
7931;SDS011;4011;49.424;10.894;2024-03-23T13:10:52;2.20;;;1.30;;
7931;SDS011;4011;49.424;10.894;2024-03-23T13:16:15;1.98;;;1.30;;
7931;SDS011;4011;49.424;10.894;2024-03-23T13:21:36;2.67;;;1.35;;
7931;SDS011;4011;49.424;10.894;2024-03-23T13:27:00;3.88;;;1.63;;
7931;SDS011;4011;49.424;10.894;2024-03-23T13:32:22;2.83;;;1.40;;
7931;SDS011;4011;49.424;10.894;2024-03-23T13:37:43;3.03;;;1.50;;
7931;SDS011;4011;49.424;10.894;2024-03-23T13:43:07;3.38;;;1.30;;
7931;SDS011;4011;49.424;10.894;2024-03-23T13:48:28;2.42;;;1.45;;
7931;SDS011;4011;49.424;10.894;2024-03-23T13:53:50;2.05;;;1.35;;
7931;SDS011;4011;49.424;10.894;2024-03-23T13:59:13;2.35;;;1.35;;
7931;SDS011;4011;49.424;10.894;2024-03-23T14:04:37;3.60;;;1.52;;
7931;SDS011;4011;49.424;10.894;2024-03-23T14:10:02;2.67;;;1.52;;
7931;SDS011;4011;49.424;10.894;2024-03-23T14:15:25;2.75;;;1.50;;
7931;SDS011;4011;49.424;10.894;2024-03-23T14:20:46;2.75;;;1.40;;
7931;SDS011;4011;49.424;10.894;2024-03-23T14:26:08;2.88;;;1.50;;
7931;SDS011;4011;49.424;10.894;2024-03-23T14:31:31;2.67;;;1.40;;
7931;SDS011;4011;49.424;10.894;2024-03-23T14:36:52;3.40;;;1.50;;
7931;SDS011;4011;49.424;10.894;2024-03-23T14:42:14;2.25;;;1.35;;
7931;SDS011;4011;49.424;10.894;2024-03-23T14:47:37;3.13;;;1.45;;
7931;SDS011;4011;49.424;10.894;2024-03-23T14:52:59;3.28;;;1.48;;
7931;SDS011;4011;49.424;10.894;2024-03-23T14:58:21;3.00;;;1.45;;
7931;SDS011;4011;49.424;10.894;2024-03-23T15:03:44;3.97;;;1.70;;
7931;SDS011;4011;49.424;10.894;2024-03-23T15:09:08;3.25;;;1.60;;
7931;SDS011;4011;49.424;10.894;2024-03-23T15:14:31;2.47;;;1.48;;
7931;SDS011;4011;49.424;10.894;2024-03-23T15:19:56;3.22;;;1.55;;
7931;SDS011;4011;49.424;10.894;2024-03-23T15:25:17;2.88;;;1.38;;
7931;SDS011;4011;49.424;10.894;2024-03-23T15:30:39;3.15;;;1.50;;
7931;SDS011;4011;49.424;10.894;2024-03-23T15:36:02;2.03;;;1.27;;
7931;SDS011;4011;49.424;10.894;2024-03-23T15:41:24;3.13;;;1.52;;
7931;SDS011;4011;49.424;10.894;2024-03-23T15:46:47;2.17;;;1.40;;
7931;SDS011;4011;49.424;10.894;2024-03-23T15:52:10;3.33;;;1.70;;
7931;SDS011;4011;49.424;10.894;2024-03-23T15:57:32;3.20;;;1.80;;
7931;SDS011;4011;49.424;10.894;2024-03-23T16:02:54;3.53;;;1.60;;
7931;SDS011;4011;49.424;10.894;2024-03-23T16:08:17;3.50;;;1.52;;
7931;SDS011;4011;49.424;10.894;2024-03-23T16:13:39;3.47;;;1.70;;
7931;SDS011;4011;49.424;10.894;2024-03-23T16:19:00;3.50;;;1.65;;
7931;SDS011;4011;49.424;10.894;2024-03-23T16:24:24;3.35;;;1.80;;
7931;SDS011;4011;49.424;10.894;2024-03-23T16:29:45;3.40;;;1.77;;
7931;SDS011;4011;49.424;10.894;2024-03-23T16:35:07;3.53;;;1.90;;
7931;SDS011;4011;49.424;10.894;2024-03-23T16:40:31;3.88;;;1.92;;
7931;SDS011;4011;49.424;10.894;2024-03-23T16:45:56;3.85;;;1.90;;
7931;SDS011;4011;49.424;10.894;2024-03-23T16:56:41;4.50;;;2.10;;
7931;SDS011;4011;49.424;10.894;2024-03-23T17:02:03;4.72;;;2.20;;
7931;SDS011;4011;49.424;10.894;2024-03-23T17:07:24;7.00;;;2.92;;
7931;SDS011;4011;49.424;10.894;2024-03-23T17:12:47;9.82;;;3.05;;
7931;SDS011;4011;49.424;10.894;2024-03-23T17:18:09;9.30;;;3.97;;
7931;SDS011;4011;49.424;10.894;2024-03-23T17:23:30;37.80;;;12.75;;
7931;SDS011;4011;49.424;10.894;2024-03-23T17:28:53;31.08;;;12.13;;
7931;SDS011;4011;49.424;10.894;2024-03-23T17:34:15;26.80;;;11.55;;
7931;SDS011;4011;49.424;10.894;2024-03-23T17:39:36;24.13;;;10.65;;
7931;SDS011;4011;49.424;10.894;2024-03-23T17:44:59;26.60;;;11.48;;
7931;SDS011;4011;49.424;10.894;2024-03-23T17:50:21;27.95;;;11.18;;
7931;SDS011;4011;49.424;10.894;2024-03-23T17:55:43;27.88;;;11.60;;
7931;SDS011;4011;49.424;10.894;2024-03-23T18:01:06;26.08;;;11.73;;
7931;SDS011;4011;49.424;10.894;2024-03-23T18:06:28;31.52;;;12.18;;
7931;SDS011;4011;49.424;10.894;2024-03-23T18:11:50;25.98;;;10.65;;
7931;SDS011;4011;49.424;10.894;2024-03-23T18:17:14;27.10;;;11.00;;
7931;SDS011;4011;49.424;10.894;2024-03-23T18:22:35;25.92;;;10.52;;
7931;SDS011;4011;49.424;10.894;2024-03-23T18:27:57;23.17;;;9.85;;
7931;SDS011;4011;49.424;10.894;2024-03-23T18:33:20;23.27;;;9.77;;
7931;SDS011;4011;49.424;10.894;2024-03-23T18:38:42;21.30;;;9.35;;
7931;SDS011;4011;49.424;10.894;2024-03-23T18:44:03;19.17;;;8.40;;
7931;SDS011;4011;49.424;10.894;2024-03-23T18:49:26;16.60;;;8.30;;
7931;SDS011;4011;49.424;10.894;2024-03-23T18:54:48;18.40;;;7.07;;
7931;SDS011;4011;49.424;10.894;2024-03-23T19:00:10;16.52;;;7.40;;
7931;SDS011;4011;49.424;10.894;2024-03-23T19:05:34;15.15;;;7.20;;
7931;SDS011;4011;49.424;10.894;2024-03-23T19:10:57;14.60;;;6.85;;
7931;SDS011;4011;49.424;10.894;2024-03-23T19:16:19;14.48;;;6.45;;
7931;SDS011;4011;49.424;10.894;2024-03-23T19:21:42;11.43;;;5.50;;
7931;SDS011;4011;49.424;10.894;2024-03-23T19:27:04;13.90;;;5.45;;
7931;SDS011;4011;49.424;10.894;2024-03-23T19:32:25;12.75;;;5.32;;
7931;SDS011;4011;49.424;10.894;2024-03-23T19:37:51;10.77;;;5.07;;
7931;SDS011;4011;49.424;10.894;2024-03-23T19:43:13;11.48;;;4.90;;
7931;SDS011;4011;49.424;10.894;2024-03-23T19:48:34;11.15;;;5.07;;
7931;SDS011;4011;49.424;10.894;2024-03-23T19:53:57;10.70;;;5.10;;
7931;SDS011;4011;49.424;10.894;2024-03-23T19:59:19;11.35;;;5.22;;
7931;SDS011;4011;49.424;10.894;2024-03-23T20:04:41;13.77;;;6.00;;
7931;SDS011;4011;49.424;10.894;2024-03-23T20:10:05;11.32;;;5.57;;
7931;SDS011;4011;49.424;10.894;2024-03-23T20:15:27;12.10;;;5.55;;
7931;SDS011;4011;49.424;10.894;2024-03-23T20:20:49;14.13;;;6.47;;
7931;SDS011;4011;49.424;10.894;2024-03-23T20:26:12;14.93;;;6.65;;
7931;SDS011;4011;49.424;10.894;2024-03-23T20:31:35;12.98;;;6.30;;
7931;SDS011;4011;49.424;10.894;2024-03-23T20:36:57;13.23;;;6.30;;
7931;SDS011;4011;49.424;10.894;2024-03-23T20:42:21;13.45;;;5.90;;
7931;SDS011;4011;49.424;10.894;2024-03-23T20:47:43;13.23;;;6.22;;
7931;SDS011;4011;49.424;10.894;2024-03-23T20:53:05;10.90;;;5.45;;
7931;SDS011;4011;49.424;10.894;2024-03-23T20:58:29;11.50;;;5.65;;
7931;SDS011;4011;49.424;10.894;2024-03-23T21:03:51;10.88;;;5.57;;
7931;SDS011;4011;49.424;10.894;2024-03-23T21:09:15;9.65;;;5.15;;
7931;SDS011;4011;49.424;10.894;2024-03-23T21:14:39;10.23;;;4.93;;
7931;SDS011;4011;49.424;10.894;2024-03-23T21:20:01;9.68;;;4.93;;
7931;SDS011;4011;49.424;10.894;2024-03-23T21:25:23;8.63;;;4.72;;
7931;SDS011;4011;49.424;10.894;2024-03-23T21:30:46;10.05;;;4.63;;
7931;SDS011;4011;49.424;10.894;2024-03-23T21:36:08;9.10;;;4.50;;
7931;SDS011;4011;49.424;10.894;2024-03-23T21:41:30;7.82;;;4.18;;
7931;SDS011;4011;49.424;10.894;2024-03-23T21:46:54;7.18;;;4.20;;
7931;SDS011;4011;49.424;10.894;2024-03-23T21:52:16;6.88;;;3.88;;
7931;SDS011;4011;49.424;10.894;2024-03-23T21:57:38;6.38;;;3.30;;
7931;SDS011;4011;49.424;10.894;2024-03-23T22:03:02;6.00;;;3.20;;
7931;SDS011;4011;49.424;10.894;2024-03-23T22:08:26;5.40;;;3.25;;
7931;SDS011;4011;49.424;10.894;2024-03-23T22:13:48;6.13;;;3.00;;
7931;SDS011;4011;49.424;10.894;2024-03-23T22:19:11;5.60;;;3.17;;
7931;SDS011;4011;49.424;10.894;2024-03-23T22:24:33;4.63;;;2.80;;
7931;SDS011;4011;49.424;10.894;2024-03-23T22:29:55;5.65;;;2.92;;
7931;SDS011;4011;49.424;10.894;2024-03-23T22:35:18;4.43;;;2.80;;
7931;SDS011;4011;49.424;10.894;2024-03-23T22:40:52;4.85;;;2.78;;
7931;SDS011;4011;49.424;10.894;2024-03-23T22:46:14;6.00;;;2.92;;
7931;SDS011;4011;49.424;10.894;2024-03-23T22:51:38;4.18;;;2.50;;
7931;SDS011;4011;49.424;10.894;2024-03-23T22:57:00;4.65;;;2.45;;
7931;SDS011;4011;49.424;10.894;2024-03-23T23:02:21;4.80;;;2.60;;
7931;SDS011;4011;49.424;10.894;2024-03-23T23:07:45;4.82;;;2.50;;
7931;SDS011;4011;49.424;10.894;2024-03-23T23:13:07;3.25;;;2.05;;
7931;SDS011;4011;49.424;10.894;2024-03-23T23:18:29;4.57;;;2.40;;
7931;SDS011;4011;49.424;10.894;2024-03-23T23:23:56;3.58;;;2.28;;
7931;SDS011;4011;49.424;10.894;2024-03-23T23:29:19;3.72;;;2.13;;
7931;SDS011;4011;49.424;10.894;2024-03-23T23:34:41;4.22;;;2.17;;
7931;SDS011;4011;49.424;10.894;2024-03-23T23:40:06;4.65;;;2.45;;
7931;SDS011;4011;49.424;10.894;2024-03-23T23:45:28;3.85;;;2.00;;
7931;SDS011;4011;49.424;10.894;2024-03-23T23:50:50;3.55;;;1.98;;
7931;SDS011;4011;49.424;10.894;2024-03-23T23:56:13;3.67;;;1.90;;
